Time;durP1;ratioP1;P1;durP2;ratioP2;P2;SDS_P1;SDS_P2;PMS_P1;PMS_P2;Temp;Humidity;BMP_temperature;BMP_pressure;BME280_temperature;BME280_humidity;BME280_pressure;Samples;Min_cycle;Max_cycle;Signal;HPM_P1;HPM_P2
2021/06/11 00:00:46;;;;;;;5.57;3.25;;;;;;;17.24;66.42;100755.50;4936459;29;20068;-52
2021/06/11 00:03:12;;;;;;;7.13;3.28;;;;;;;17.26;66.37;100755.13;4947722;29;20054;-51
2021/06/11 00:05:40;;;;;;;5.78;3.03;;;;;;;17.25;66.31;100765.50;4935037;28;20123;-51
2021/06/11 00:08:07;;;;;;;6.82;3.10;;;;;;;17.23;66.24;100776.31;4933357;29;20138;-52
2021/06/11 00:10:35;;;;;;;7.18;3.00;;;;;;;17.20;66.36;100776.28;4945914;29;20517;-48
2021/06/11 00:13:05;;;;;;;6.70;2.90;;;;;;;17.19;66.32;100786.66;4934236;29;20051;-51
2021/06/11 00:15:32;;;;;;;6.78;3.15;;;;;;;17.19;66.26;100786.66;4934091;29;20051;-52
2021/06/11 00:17:59;;;;;;;7.53;2.65;;;;;;;17.25;66.00;100782.31;4934486;29;20052;-52
2021/06/11 00:20:26;;;;;;;6.00;2.25;;;;;;;17.25;65.96;100779.50;4934355;29;20055;-50
2021/06/11 00:22:53;;;;;;;6.80;2.53;;;;;;;17.25;65.67;100787.91;4940936;29;20135;-51
2021/06/11 00:25:23;;;;;;;10.18;3.25;;;;;;;17.28;65.48;100784.31;4935823;29;20126;-49
2021/06/11 00:28:01;;;;;;;6.90;2.67;;;;;;;17.23;65.61;100798.69;4934836;29;20131;-54
2021/06/11 00:30:29;;;;;;;8.80;3.22;;;;;;;17.23;65.63;100801.47;4935885;29;20441;-53
2021/06/11 00:32:58;;;;;;;6.55;2.53;;;;;;;17.22;65.58;100780.28;4935885;29;20497;-49
2021/06/11 00:35:27;;;;;;;12.45;3.45;;;;;;;17.22;65.54;100791.47;4937912;29;20103;-53
2021/06/11 00:37:54;;;;;;;5.72;2.63;;;;;;;17.20;65.67;100781.88;4937781;28;20040;-53
2021/06/11 00:40:22;;;;;;;9.70;2.58;;;;;;;17.18;65.63;100790.66;4940916;29;20512;-52
2021/06/11 00:42:49;;;;;;;7.18;3.08;;;;;;;17.16;65.67;100784.63;4936027;29;20665;-50
2021/06/11 00:45:16;;;;;;;6.70;2.65;;;;;;;17.16;65.70;100781.81;4946506;29;20072;-51
2021/06/11 00:47:45;;;;;;;5.90;2.85;;;;;;;17.17;65.73;100783.44;4935428;29;20135;-52
2021/06/11 00:50:18;;;;;;;6.18;2.75;;;;;;;17.19;65.56;100792.25;4935311;29;20054;-51
2021/06/11 00:52:45;;;;;;;7.88;2.67;;;;;;;17.22;65.62;100807.44;4943933;29;20075;-49
2021/06/11 00:55:12;;;;;;;6.40;2.17;;;;;;;17.19;65.59;100785.84;4937587;28;20450;-51
2021/06/11 00:57:39;;;;;;;6.85;2.33;;;;;;;17.16;65.35;100795.81;4935667;29;20371;-49
2021/06/11 01:00:07;;;;;;;8.63;4.32;;;;;;;17.13;65.24;100793.78;4935438;29;20095;-50
2021/06/11 01:02:34;;;;;;;9.57;2.67;;;;;;;17.10;65.51;100797.38;4941956;29;20110;-48
2021/06/11 01:05:03;;;;;;;9.05;2.67;;;;;;;17.08;65.58;100796.94;4941014;28;20047;-48
2021/06/11 01:07:31;;;;;;;5.72;3.13;;;;;;;17.07;65.62;100788.97;4934491;29;20149;-52
2021/06/11 01:09:59;;;;;;;13.32;3.60;;;;;;;17.10;65.51;100788.19;4944690;29;20143;-50
2021/06/11 01:12:25;;;;;;;7.20;2.95;;;;;;;17.09;65.64;100784.59;4935963;28;20036;-49
2021/06/11 01:14:53;;;;;;;5.80;2.95;;;;;;;17.08;65.63;100788.56;4935536;29;20048;-50
2021/06/11 01:17:22;;;;;;;7.32;2.83;;;;;;;17.09;65.66;100787.38;4934283;29;20134;-53
2021/06/11 01:19:49;;;;;;;6.55;3.55;;;;;;;17.09;65.77;100792.97;4933751;29;20092;-52
2021/06/11 01:22:32;;;;;;;7.40;2.80;;;;;;;17.06;66.12;100796.53;4937895;29;20063;-54
2021/06/11 01:25:10;;;;;;;5.55;2.28;;;;;;;17.03;66.43;100805.72;4935270;29;20071;-52
2021/06/11 01:27:39;;;;;;;6.55;2.30;;;;;;;17.08;65.93;100810.16;4932144;29;20501;-50
2021/06/11 01:30:10;;;;;;;5.22;2.80;;;;;;;17.07;66.13;100800.16;4935294;29;20128;-50
2021/06/11 01:32:40;;;;;;;9.20;3.20;;;;;;;17.07;66.03;100806.56;4928531;29;20052;-53
2021/06/11 01:35:13;;;;;;;6.80;2.60;;;;;;;17.07;66.35;100800.16;4935496;29;20086;-53
2021/06/11 01:37:41;;;;;;;7.32;2.97;;;;;;;17.09;66.26;100792.97;4939513;29;20469;-52
2021/06/11 01:40:10;;;;;;;7.20;2.80;;;;;;;17.05;66.03;100809.72;4939069;29;20498;-52
2021/06/11 01:42:40;;;;;;;10.63;3.00;;;;;;;17.05;66.24;100804.13;4934873;29;20512;-48
2021/06/11 01:45:11;;;;;;;9.98;4.05;;;;;;;17.07;66.10;100800.16;4945197;29;20078;-56
2021/06/11 01:47:44;;;;;;;8.57;3.08;;;;;;;17.04;66.16;100804.53;4925385;29;20063;-50
2021/06/11 01:50:15;;;;;;;4.70;2.45;;;;;;;17.01;66.27;100802.50;4934810;29;20437;-51
2021/06/11 01:52:42;;;;;;;6.40;2.08;;;;;;;17.00;66.37;100796.09;4931894;29;20078;-52
2021/06/11 01:55:10;;;;;;;6.85;2.22;;;;;;;16.99;66.60;100807.69;4937814;28;20158;-48
2021/06/11 01:57:37;;;;;;;4.18;2.47;;;;;;;16.96;66.47;100812.06;4933295;29;20524;-52
2021/06/11 02:00:04;;;;;;;9.00;2.72;;;;;;;16.95;66.52;100815.22;4934443;29;20075;-48
2021/06/11 02:02:32;;;;;;;6.75;2.20;;;;;;;17.00;66.52;100815.69;4940159;29;20449;-50
2021/06/11 02:04:59;;;;;;;7.32;2.40;;;;;;;17.05;66.51;100815.31;4941032;28;20087;-51
2021/06/11 02:07:27;;;;;;;6.93;2.90;;;;;;;16.99;66.77;100813.28;4933480;29;20518;-50
2021/06/11 02:09:55;;;;;;;9.88;2.70;;;;;;;16.98;66.81;100801.28;4941799;29;20126;-49
2021/06/11 02:12:22;;;;;;;5.28;2.70;;;;;;;16.94;67.08;100806.03;4936848;28;20122;-50
2021/06/11 02:14:50;;;;;;;9.90;2.65;;;;;;;16.92;67.15;100811.22;4934530;29;20048;-51
2021/06/11 02:17:17;;;;;;;7.15;2.83;;;;;;;16.90;67.31;100807.19;4933576;29;20093;-51
2021/06/11 02:19:46;;;;;;;7.00;2.90;;;;;;;16.96;67.17;100812.06;4934470;29;20134;-52
2021/06/11 02:22:14;;;;;;;15.48;2.97;;;;;;;16.93;67.41;100818.41;4933776;29;20489;-50
2021/06/11 02:24:41;;;;;;;5.95;2.83;;;;;;;16.91;67.46;100804.03;4934440;29;20131;-48
2021/06/11 02:27:08;;;;;;;10.85;3.10;;;;;;;16.82;67.69;100811.13;4933509;29;20130;-51
2021/06/11 02:29:35;;;;;;;9.88;3.42;;;;;;;16.81;67.83;100815.13;4933698;29;20048;-51
2021/06/11 02:32:04;;;;;;;7.43;4.15;;;;;;;16.78;68.03;100810.28;4933815;29;20047;-50
2021/06/11 02:34:32;;;;;;;5.35;2.97;;;;;;;16.79;67.99;100817.47;4932890;29;20106;-51
2021/06/11 02:36:59;;;;;;;7.13;2.80;;;;;;;16.76;68.04;100826.66;4938279;29;20130;-51
2021/06/11 02:39:27;;;;;;;6.50;3.05;;;;;;;16.72;68.23;100828.59;4936373;29;20086;-50
2021/06/11 02:42:03;;;;;;;8.13;3.00;;;;;;;16.71;68.57;100830.59;4934476;28;20539;-49
2021/06/11 02:44:34;;;;;;;12.73;4.45;;;;;;;16.73;68.23;100830.22;4942793;29;20050;-51
2021/06/11 02:47:13;;;;;;;7.35;3.20;;;;;;;16.70;68.63;100829.00;4934046;28;20051;-50
2021/06/11 02:49:48;;;;;;;9.55;2.88;;;;;;;16.69;68.76;100835.75;4933762;29;20051;-53
2021/06/11 02:52:21;;;;;;;5.93;2.60;;;;;;;16.69;68.53;100837.75;4935623;29;20083;-50
2021/06/11 02:54:50;;;;;;;6.85;2.35;;;;;;;16.70;68.68;100840.19;4941036;28;20090;-53
2021/06/11 02:57:38;;;;;;;8.38;2.90;;;;;;;16.66;69.08;100836.53;4932358;29;20108;-51
2021/06/11 03:00:09;;;;;;;11.27;3.50;;;;;;;16.63;68.95;100844.88;4933261;29;20063;-49
2021/06/11 03:02:56;;;;;;;11.98;4.05;;;;;;;16.64;69.41;100843.69;4939990;29;20130;-53
2021/06/11 03:05:24;;;;;;;7.18;2.72;;;;;;;16.64;69.02;100843.69;4937494;28;20074;-51
2021/06/11 03:07:55;;;;;;;9.23;3.00;;;;;;;16.62;69.45;100835.72;4930483;29;20071;-52
2021/06/11 03:10:30;;;;;;;7.50;3.13;;;;;;;16.59;69.83;100844.03;4942811;29;20501;-50
2021/06/11 03:13:00;;;;;;;9.40;3.90;;;;;;;16.64;69.35;100843.69;4933570;29;20402;-51
2021/06/11 03:15:30;;;;;;;10.07;2.97;;;;;;;16.59;69.77;100846.84;4934229;29;20075;-51
2021/06/11 03:18:01;;;;;;;5.07;2.85;;;;;;;16.57;69.98;100843.63;4933370;29;20446;-48
2021/06/11 03:20:32;;;;;;;9.95;3.58;;;;;;;16.58;70.19;100839.63;4933902;29;20123;-53
2021/06/11 03:23:10;;;;;;;7.15;2.67;;;;;;;16.55;70.29;100835.63;4936187;29;20142;-53
2021/06/11 03:25:49;;;;;;;10.48;3.30;;;;;;;16.57;70.77;100833.25;4933979;29;20456;-47
2021/06/11 03:28:20;;;;;;;6.38;2.50;;;;;;;16.57;70.68;100843.63;4916430;29;20086;-52
2021/06/11 03:30:56;;;;;;;4.10;2.42;;;;;;;16.55;70.99;100854.41;4933658;29;20442;-50
2021/06/11 03:33:31;;;;;;;7.43;2.40;;;;;;;16.53;71.15;100853.94;4933524;29;20050;-51
2021/06/11 03:36:16;;;;;;;6.28;2.33;;;;;;;16.56;71.39;100847.59;4934796;29;20130;-51
2021/06/11 03:38:48;;;;;;;5.60;2.35;;;;;;;16.56;71.04;100850.41;4935104;29;20135;-53
2021/06/11 03:41:17;;;;;;;5.88;2.67;;;;;;;16.59;71.08;100863.63;4933503;29;20544;-49
2021/06/11 03:43:49;;;;;;;10.93;3.35;;;;;;;16.52;71.34;100844.72;4926670;29;20103;-48
2021/06/11 03:46:18;;;;;;;5.68;2.20;;;;;;;16.48;71.33;100849.50;4943063;28;20078;-49
2021/06/11 03:48:49;;;;;;;8.45;3.80;;;;;;;16.51;71.49;100856.31;4937176;29;20560;-50
2021/06/11 03:51:18;;;;;;;6.15;2.28;;;;;;;16.50;71.71;100854.69;4936519;29;20058;-55
2021/06/11 03:53:46;;;;;;;6.07;2.30;;;;;;;16.46;71.82;100860.25;4944377;29;20122;-50
2021/06/11 03:56:17;;;;;;;4.90;2.50;;;;;;;16.48;72.14;100851.47;4936726;29;20131;-50
2021/06/11 03:58:46;;;;;;;9.10;2.30;;;;;;;16.50;72.08;100849.09;4934595;29;20031;-52
2021/06/11 04:01:20;;;;;;;4.93;2.97;;;;;;;16.50;72.23;100858.28;4937222;29;20134;-51
2021/06/11 04:03:48;;;;;;;2.67;2.10;;;;;;;16.49;72.13;100853.09;4946496;29;20054;-49
2021/06/11 04:06:17;;;;;;;5.30;2.05;;;;;;;16.46;72.27;100843.47;4936815;29;20147;-48
2021/06/11 04:08:44;;;;;;;7.25;2.40;;;;;;;16.47;72.33;100852.69;4932894;29;20134;-49
2021/06/11 04:11:16;;;;;;;7.55;2.10;;;;;;;16.51;72.19;100853.50;4945129;29;20055;-49
2021/06/11 04:13:42;;;;;;;;;;;;;;;16.48;72.97;100865.44;4936809;29;20187;-53
2021/06/11 04:16:19;;;;;;;8.00;2.20;;;;;;;16.46;72.85;100860.25;4936230;29;20005;-50
2021/06/11 04:18:47;;;;;;;4.78;2.70;;;;;;;16.43;72.28;100853.44;4931382;29;20048;-51
2021/06/11 04:21:22;;;;;;;3.97;2.00;;;;;;;16.40;72.97;100859.78;4936037;29;20126;-49
2021/06/11 04:23:52;;;;;;;3.83;1.85;;;;;;;16.38;72.72;100853.78;4938788;29;20497;-50
2021/06/11 04:26:24;;;;;;;7.68;3.22;;;;;;;16.47;72.78;100861.06;4936079;29;20059;-49
2021/06/11 04:28:55;;;;;;;3.58;1.60;;;;;;;16.50;72.76;100854.69;4936298;29;20051;-52
2021/06/11 04:31:23;;;;;;;5.68;2.55;;;;;;;16.56;72.51;100864.38;4935622;29;20052;-50
2021/06/11 04:33:50;;;;;;;3.75;2.35;;;;;;;16.57;72.67;100868.78;4936010;29;20502;-51
2021/06/11 04:36:17;;;;;;;2.92;1.80;;;;;;;16.53;72.89;100862.34;4940813;29;20079;-52
2021/06/11 04:39:03;;;;;;;4.05;1.92;;;;;;;16.56;73.50;100865.19;4941185;29;20098;-50
2021/06/11 04:41:30;;;;;;;3.50;1.80;;;;;;;16.61;72.85;100876.00;4937701;29;20138;-50
2021/06/11 04:43:59;;;;;;;4.00;1.58;;;;;;;16.61;73.11;100867.63;4939332;29;20101;-54
2021/06/11 04:46:26;;;;;;;5.35;2.60;;;;;;;16.59;73.06;100874.78;4940640;28;20051;-53
2021/06/11 04:48:54;;;;;;;5.40;1.60;;;;;;;16.57;73.18;100877.97;4935931;29;20032;-52
2021/06/11 04:51:20;;;;;;;3.25;1.70;;;;;;;16.64;73.08;100874.44;4931422;29;20814;-48
2021/06/11 04:53:47;;;;;;;3.60;1.88;;;;;;;16.70;72.92;100882.13;4943848;28;20438;-54
2021/06/11 04:56:15;;;;;;;5.47;1.95;;;;;;;16.74;73.13;100887.72;4935711;29;20127;-50
2021/06/11 04:58:42;;;;;;;3.05;1.67;;;;;;;16.77;72.97;100882.19;4930674;29;20126;-50
2021/06/11 05:01:10;;;;;;;4.35;1.42;;;;;;;16.77;73.10;100875.78;4953565;23;21224;-77
2021/06/11 05:03:37;;;;;;;2.08;1.70;;;;;;;16.81;73.17;100879.44;4938973;28;20043;-77
2021/06/11 05:06:05;;;;;;;4.60;1.83;;;;;;;16.83;73.01;100875.06;4945343;28;20097;-77
2021/06/11 05:08:32;;;;;;;3.88;1.67;;;;;;;16.87;73.28;100869.47;4941115;28;20114;-77
2021/06/11 05:11:01;;;;;;;3.03;1.25;;;;;;;16.89;73.05;100875.53;4955005;28;20050;-77
2021/06/11 05:13:28;;;;;;;3.25;1.60;;;;;;;16.89;73.10;100873.50;4950677;28;20122;-80
2021/06/11 05:15:56;;;;;;;5.68;1.77;;;;;;;16.87;73.27;100869.47;4951364;28;20039;-77
2021/06/11 05:18:29;;;;;;;3.25;1.80;;;;;;;16.86;72.97;100873.50;4935655;29;20477;-77
2021/06/11 05:20:56;;;;;;;3.05;1.88;;;;;;;16.90;73.19;100885.50;4950340;29;20035;-76
2021/06/11 05:23:23;;;;;;;4.93;1.80;;;;;;;16.86;73.23;100876.28;4954590;28;20200;-77
2021/06/11 05:25:51;;;;;;;4.60;1.63;;;;;;;16.90;73.20;100874.31;4933528;29;20047;-77
2021/06/11 05:28:22;;;;;;;3.13;1.27;;;;;;;16.91;73.21;100885.13;4933284;29;20039;-77
2021/06/11 05:30:54;;;;;;;2.97;1.67;;;;;;;16.93;73.14;100879.13;4961334;28;20049;-77
2021/06/11 05:33:21;;;;;;;;;;;;;;;16.93;73.38;100884.75;4950303;28;20070;-78
2021/06/11 05:35:49;;;;;;;4.85;1.98;;;;;;;16.92;73.09;100883.13;4951899;28;19925;-77
2021/06/11 05:38:16;;;;;;;3.65;1.40;;;;;;;16.88;73.13;100883.09;4958312;28;20341;-77
2021/06/11 05:40:43;;;;;;;4.85;2.30;;;;;;;16.86;73.11;100888.28;4949637;28;20142;-77
2021/06/11 05:43:10;;;;;;;2.97;1.73;;;;;;;16.82;73.26;100895.81;4950314;29;20055;-77
2021/06/11 05:45:37;;;;;;;6.03;1.40;;;;;;;16.81;73.15;100894.19;4949762;28;20063;-78
2021/06/11 05:48:06;;;;;;;2.50;1.33;;;;;;;16.80;73.10;100889.00;4962576;28;20042;-77
2021/06/11 05:50:33;;;;;;;2.83;1.17;;;;;;;16.78;73.18;100899.78;4950825;29;20039;-77
2021/06/11 05:53:00;;;;;;;5.43;1.50;;;;;;;16.75;73.11;100894.94;4956923;28;20098;-77
2021/06/11 05:55:27;;;;;;;4.43;1.35;;;;;;;16.75;73.33;100906.13;4950509;28;20163;-77
2021/06/11 05:57:55;;;;;;;3.80;1.63;;;;;;;16.77;73.29;100903.75;4950771;29;20047;-77
2021/06/11 06:00:23;;;;;;;4.38;1.23;;;;;;;16.77;73.11;100904.56;4950266;29;20051;-77
2021/06/11 06:02:51;;;;;;;2.92;1.20;;;;;;;16.76;73.32;100919.72;4941296;28;20676;-77
2021/06/11 06:05:18;;;;;;;4.60;1.40;;;;;;;16.74;73.23;100924.06;4949075;28;20043;-75
2021/06/11 06:07:45;;;;;;;4.80;1.38;;;;;;;16.75;73.53;100922.91;4951355;29;20035;-77
2021/06/11 06:10:13;;;;;;;3.70;1.20;;;;;;;16.69;73.71;100928.03;4960087;28;20479;-77
2021/06/11 06:12:39;;;;;;;3.25;1.20;;;;;;;16.68;73.58;100922.84;4950084;29;20114;-77
2021/06/11 06:15:07;;;;;;;1.67;1.13;;;;;;;16.72;73.60;100913.28;4943420;29;20133;-77
2021/06/11 06:17:36;;;;;;;4.10;1.42;;;;;;;16.73;73.51;100928.06;4949663;28;20432;-77
2021/06/11 06:20:05;;;;;;;2.55;1.38;;;;;;;16.78;73.44;100919.34;4949246;29;20047;-77
2021/06/11 06:22:40;;;;;;;1.90;1.15;;;;;;;16.81;73.33;100921.38;4956037;28;20045;-77
2021/06/11 06:25:08;;;;;;;1.85;1.30;;;;;;;16.79;73.49;100923.72;4950800;29;20061;-77
2021/06/11 06:27:37;;;;;;;2.03;1.50;;;;;;;16.74;73.55;100935.25;4950722;29;20569;-77
2021/06/11 06:30:05;;;;;;;1.77;1.38;;;;;;;16.73;73.72;100945.63;4949439;29;20047;-77
2021/06/11 06:32:32;;;;;;;4.75;1.60;;;;;;;16.73;73.74;100948.44;4949692;29;20097;-76
2021/06/11 06:34:59;;;;;;;3.50;1.30;;;;;;;16.67;73.64;100952.78;4950246;28;20043;-77
2021/06/11 06:37:27;;;;;;;5.50;1.38;;;;;;;16.59;73.63;100953.88;4957114;28;20050;-77
2021/06/11 06:39:54;;;;;;;1.17;1.08;;;;;;;16.58;74.18;100945.84;4949588;28;20043;-77
2021/06/11 06:42:21;;;;;;;4.95;2.30;;;;;;;16.60;74.01;100954.69;4950581;29;20057;-80
2021/06/11 06:44:48;;;;;;;3.65;1.30;;;;;;;16.57;74.36;100958.22;4932646;29;20054;-76
2021/06/11 06:47:15;;;;;;;2.03;1.20;;;;;;;16.52;74.51;100956.53;4949944;29;20054;-77
2021/06/11 06:49:42;;;;;;;4.22;1.48;;;;;;;16.54;74.55;100964.59;4949677;29;20484;-77
2021/06/11 06:52:08;;;;;;;1.40;1.30;;;;;;;16.59;74.32;100953.06;4950443;29;20485;-76
2021/06/11 06:54:35;;;;;;;2.10;1.85;;;;;;;16.59;74.31;100961.44;4939647;29;20043;-78
2021/06/11 06:57:02;;;;;;;1.70;1.17;;;;;;;16.62;73.97;100963.47;4933122;29;20065;-77
2021/06/11 06:59:29;;;;;;;3.67;1.73;;;;;;;16.66;73.34;100967.13;4947919;29;20047;-77
2021/06/11 07:02:00;;;;;;;2.33;1.40;;;;;;;16.72;73.09;100965.59;4949954;28;20081;-78
2021/06/11 07:04:28;;;;;;;2.95;1.73;;;;;;;16.83;72.61;100970.13;4950532;28;20047;-77
2021/06/11 07:06:55;;;;;;;2.20;1.42;;;;;;;16.87;72.26;100978.56;4934874;29;20071;-77
2021/06/11 07:09:22;;;;;;;2.72;1.45;;;;;;;16.92;71.86;100981.00;4949146;28;20047;-76
2021/06/11 07:11:51;;;;;;;3.85;1.77;;;;;;;16.96;71.36;100979.06;4956302;28;20039;-77
2021/06/11 07:14:19;;;;;;;2.47;1.45;;;;;;;17.00;70.97;100974.31;4949449;29;20596;-78
2021/06/11 07:16:48;;;;;;;7.20;2.17;;;;;;;17.10;70.15;100984.81;4951823;28;20126;-76
2021/06/11 07:19:16;;;;;;;1.73;1.40;;;;;;;17.16;70.04;100983.28;4951144;29;20062;-78
2021/06/11 07:21:43;;;;;;;3.25;1.77;;;;;;;17.28;69.89;100983.00;4960891;28;20046;-77
2021/06/11 07:24:11;;;;;;;4.95;2.50;;;;;;;17.36;69.38;100984.69;4950362;28;20047;-77
2021/06/11 07:26:38;;;;;;;2.55;1.20;;;;;;;17.34;68.54;100998.25;4952469;29;20053;-79
2021/06/11 07:29:05;;;;;;;4.05;1.52;;;;;;;17.35;68.21;101001.84;4952629;29;20046;-79
2021/06/11 07:31:33;;;;;;;1.17;1.00;;;;;;;17.45;68.02;100990.75;4949814;29;20720;-79
2021/06/11 07:34:00;;;;;;;2.85;1.40;;;;;;;17.67;67.97;100990.97;4950823;28;20043;-79
2021/06/11 07:36:27;;;;;;;3.47;1.20;;;;;;;17.87;68.57;100997.97;4942061;28;20048;-78
2021/06/11 07:38:54;;;;;;;1.70;1.05;;;;;;;18.22;68.89;100998.19;4956808;28;20134;-77
2021/06/11 07:41:21;;;;;;;4.07;1.85;;;;;;;18.58;69.13;100994.44;4957828;28;20031;-77
2021/06/11 07:43:51;;;;;;;2.63;1.38;;;;;;;18.98;68.47;101003.81;4952704;29;20053;-77
2021/06/11 07:46:19;;;;;;;2.42;1.70;;;;;;;19.44;67.55;101016.78;4956292;28;20162;-77
2021/06/11 07:48:46;;;;;;;4.63;2.00;;;;;;;19.98;66.24;101012.81;4952429;28;20043;-77
2021/06/11 07:51:13;;;;;;;5.30;1.95;;;;;;;20.53;64.52;101017.94;4935068;29;20098;-78
2021/06/11 07:53:41;;;;;;;3.63;1.63;;;;;;;20.77;62.43;101019.88;4954287;28;20067;-82
2021/06/11 07:56:09;;;;;;;2.78;1.35;;;;;;;20.98;60.72;101016.16;4950862;29;20043;-75
2021/06/11 07:58:36;;;;;;;8.75;2.78;;;;;;;20.81;59.23;101020.66;4951938;29;20051;-75
2021/06/11 08:01:03;;;;;;;4.47;2.30;;;;;;;21.19;58.30;101025.34;4952545;29;20043;-76
2021/06/11 08:03:30;;;;;;;2.13;1.50;;;;;;;21.45;56.83;101021.16;4952165;28;20467;-76
2021/06/11 08:05:58;;;;;;;2.70;1.42;;;;;;;21.72;55.11;101024.19;4952216;29;20583;-75
2021/06/11 08:08:25;;;;;;;4.68;1.92;;;;;;;22.25;54.45;101024.56;4952615;29;20040;-76
2021/06/11 08:10:52;;;;;;;3.63;1.60;;;;;;;22.63;53.56;101033.06;4958574;28;20129;-76
2021/06/11 08:13:21;;;;;;;4.00;2.17;;;;;;;23.10;52.08;101034.88;4952295;29;20036;-75
2021/06/11 08:15:48;;;;;;;3.58;1.45;;;;;;;23.47;50.78;101034.00;4952750;29;20481;-75
2021/06/11 08:18:15;;;;;;;5.18;2.03;;;;;;;23.58;49.42;101026.97;4952246;29;20044;-76
2021/06/11 08:20:42;;;;;;;2.25;1.60;;;;;;;23.54;48.77;101037.50;4949376;28;20043;-77
2021/06/11 08:23:11;;;;;;;3.53;1.30;;;;;;;23.63;48.25;101026.47;4948649;28;20035;-76
2021/06/11 08:25:38;;;;;;;6.40;1.80;;;;;;;23.95;47.35;101033.63;4958111;28;20043;-75
2021/06/11 08:28:05;;;;;;;3.78;1.90;;;;;;;24.00;46.73;101021.84;4951627;28;20506;-76
2021/06/11 08:30:32;;;;;;;4.18;2.13;;;;;;;24.08;46.14;101014.81;4950968;28;20067;-75
2021/06/11 08:33:00;;;;;;;5.30;1.77;;;;;;;24.07;45.44;101025.34;4948905;28;20130;-75
2021/06/11 08:35:29;;;;;;;4.32;1.98;;;;;;;24.10;45.09;101035.03;4951718;28;20047;-75
2021/06/11 08:37:56;;;;;;;8.38;2.58;;;;;;;24.30;44.91;101043.56;4944604;28;20409;-75
2021/06/11 08:40:24;;;;;;;3.97;2.40;;;;;;;24.60;44.80;101038.53;4956693;28;20030;-75
2021/06/11 08:42:52;;;;;;;5.38;2.25;;;;;;;24.79;44.36;101049.09;4953986;28;20043;-75
2021/06/11 08:45:19;;;;;;;5.97;2.00;;;;;;;24.99;43.40;101034.97;4950469;28;20077;-75
2021/06/11 08:47:49;;;;;;;5.45;2.00;;;;;;;25.14;42.80;101041.09;4949545;28;20567;-75
2021/06/11 08:50:27;;;;;;;3.70;1.58;;;;;;;25.24;40.82;101051.41;4951443;29;20911;-75
2021/06/11 08:52:56;;;;;;;6.40;1.98;;;;;;;25.32;42.01;101042.31;4934736;28;20071;-75
2021/06/11 08:55:24;;;;;;;7.55;2.25;;;;;;;25.40;41.87;101043.75;4950943;29;20046;-75
2021/06/11 08:57:51;;;;;;;5.85;1.80;;;;;;;25.10;41.76;101035.50;4949953;29;20439;-75
2021/06/11 09:00:20;;;;;;;4.80;2.22;;;;;;;25.12;41.64;101038.72;4951274;29;20158;-74
2021/06/11 09:03:09;;;;;;;7.93;2.55;;;;;;;24.66;41.27;101039.63;4950242;28;20130;-75
2021/06/11 09:05:38;;;;;;;9.32;2.90;;;;;;;24.32;41.62;101039.06;4950195;29;20488;-75
2021/06/11 09:08:21;;;;;;;4.45;1.77;;;;;;;23.64;42.01;101036.53;4933142;29;20047;-75
2021/06/11 09:10:55;;;;;;;10.32;1.98;;;;;;;23.25;42.90;101047.59;4961681;28;20047;-75
2021/06/11 09:13:27;;;;;;;8.68;2.15;;;;;;;22.98;43.32;101052.41;4932714;29;20053;-75
2021/06/11 09:16:13;;;;;;;8.57;2.70;;;;;;;22.48;44.15;101048.50;4950820;29;20047;-75
2021/06/11 09:18:42;;;;;;;6.38;2.22;;;;;;;22.51;44.27;101042.00;4950036;28;20094;-75
2021/06/11 09:21:35;;;;;;;8.85;2.30;;;;;;;23.25;43.69;101039.13;4944823;28;20044;-75
2021/06/11 09:24:16;;;;;;;6.88;1.90;;;;;;;23.84;42.29;101047.94;4949518;28;20054;-74
2021/06/11 09:27:03;;;;;;;5.85;1.80;;;;;;;23.50;41.96;101045.25;4947722;29;20106;-75
2021/06/11 09:29:33;;;;;;;6.57;2.88;;;;;;;23.81;42.45;101053.66;4948650;28;20039;-75
2021/06/11 09:32:28;;;;;;;7.63;2.20;;;;;;;23.67;41.63;101062.38;4950603;29;20043;-75
2021/06/11 09:35:03;;;;;;;7.63;2.38;;;;;;;23.01;42.29;101058.00;4948769;28;20142;-75
2021/06/11 09:37:37;;;;;;;6.05;2.00;;;;;;;22.54;42.96;101058.91;4948196;28;20071;-75
2021/06/11 09:40:12;;;;;;;6.32;2.22;;;;;;;22.22;43.15;101069.69;4937427;28;20388;-75
2021/06/11 09:42:44;;;;;;;6.72;2.22;;;;;;;22.30;43.48;101069.22;4932036;29;20063;-75
2021/06/11 09:45:11;;;;;;;;;;;;;;;22.09;43.09;101075.06;4956337;28;20040;-75
2021/06/11 09:47:51;;;;;;;4.97;2.50;;;;;;;22.30;43.85;101077.69;4948884;29;19932;-74
2021/06/11 09:50:30;;;;;;;6.65;2.00;;;;;;;22.80;43.99;101072.38;4947025;29;20053;-76
2021/06/11 09:53:02;;;;;;;9.20;2.63;;;;;;;23.21;43.76;101079.94;4936184;28;20039;-77
2021/06/11 09:55:30;;;;;;;;;;;;;;;23.47;43.81;101068.72;4950425;28;20078;-75
2021/06/11 09:58:24;;;;;;;7.97;3.13;;;;;;;23.83;43.32;101083.09;4950496;29;19937;-77
2021/06/11 10:00:59;;;;;;;5.35;2.10;;;;;;;24.00;42.87;101078.41;4916227;29;20410;-77
2021/06/11 10:03:30;;;;;;;7.43;2.45;;;;;;;24.13;42.58;101073.75;4949354;28;20048;-77
2021/06/11 10:06:03;;;;;;;8.45;2.53;;;;;;;24.42;41.62;101103.19;4937889;29;20162;-78
2021/06/11 10:08:31;;;;;;;3.50;2.10;;;;;;;24.28;41.43;101103.41;4938182;28;20057;-77
2021/06/11 10:11:01;;;;;;;9.77;2.33;;;;;;;24.26;41.68;101107.91;4939578;28;20070;-77
2021/06/11 10:13:29;;;;;;;7.28;2.13;;;;;;;23.75;41.92;101109.09;4931450;29;20481;-77
2021/06/11 10:15:58;;;;;;;7.22;2.38;;;;;;;22.91;42.78;101101.28;4949277;28;20051;-77
2021/06/11 10:18:25;;;;;;;8.23;2.53;;;;;;;22.56;43.30;101107.25;4931950;29;20574;-77
2021/06/11 10:20:53;;;;;;;11.23;3.13;;;;;;;22.16;43.58;101103.19;4949130;28;20134;-77
2021/06/11 10:23:23;;;;;;;7.88;2.40;;;;;;;22.03;43.99;101116.19;4949822;28;20043;-77
2021/06/11 10:25:55;;;;;;;10.45;2.78;;;;;;;22.02;44.35;101116.63;4945328;28;20554;-77
2021/06/11 10:28:37;;;;;;;10.45;3.15;;;;;;;22.18;44.33;101120.53;4949106;29;20039;-77
2021/06/11 10:31:13;;;;;;;7.47;2.28;;;;;;;22.10;44.05;101123.81;4949629;29;20574;-77
2021/06/11 10:33:43;;;;;;;9.27;2.20;;;;;;;21.79;44.49;101115.13;4929206;29;20077;-76
2021/06/11 10:36:37;;;;;;;5.47;1.92;;;;;;;21.53;44.65;101117.69;4945872;28;20045;-77
2021/06/11 10:39:11;;;;;;;8.65;2.60;;;;;;;21.49;45.30;101128.19;4957281;28;20043;-77
2021/06/11 10:41:56;;;;;;;6.57;2.13;;;;;;;21.49;44.69;101128.19;4948899;28;20050;-77
2021/06/11 10:44:30;;;;;;;4.00;1.83;;;;;;;21.47;44.91;101131.41;4950795;28;20391;-77
2021/06/11 10:47:15;;;;;;;4.65;2.00;;;;;;;21.48;45.54;101129.41;4948389;28;20075;-77
2021/06/11 10:50:01;;;;;;;8.23;2.08;;;;;;;21.57;45.03;101135.41;4948493;29;20415;-77
2021/06/11 10:52:37;;;;;;;5.32;2.53;;;;;;;21.72;45.09;101136.91;4945141;29;20049;-76
2021/06/11 10:55:13;;;;;;;8.32;2.25;;;;;;;21.64;44.78;101152.25;4951999;28;20414;-75
2021/06/11 10:57:41;;;;;;;7.45;2.42;;;;;;;21.52;45.32;101156.34;4948610;29;20131;-75
2021/06/11 11:00:23;;;;;;;5.55;1.95;;;;;;;21.32;45.67;101158.03;4949500;29;20051;-75
2021/06/11 11:02:58;;;;;;;7.13;2.15;;;;;;;21.06;46.11;101161.31;4947266;28;20066;-75
2021/06/11 11:05:36;;;;;;;7.00;2.50;;;;;;;20.95;46.49;101155.72;4931549;29;20044;-75
2021/06/11 11:08:06;;;;;;;5.90;2.13;;;;;;;21.07;46.37;101155.31;4939694;29;20058;-75
2021/06/11 11:10:36;;;;;;;6.20;2.30;;;;;;;21.18;46.39;101147.63;4937992;29;20138;-75
2021/06/11 11:13:03;;;;;;;9.52;4.28;;;;;;;21.35;46.59;101153.59;4949524;29;20106;-76
2021/06/11 11:15:44;;;;;;;7.93;2.38;;;;;;;21.49;46.10;101162.00;4947141;29;20474;-75
2021/06/11 11:18:22;;;;;;;10.38;2.10;;;;;;;21.30;46.00;101156.84;4948476;29;20055;-75
2021/06/11 11:20:51;;;;;;;8.05;2.28;;;;;;;20.98;46.37;101157.72;4950167;28;20053;-74
2021/06/11 11:23:24;;;;;;;13.07;2.65;;;;;;;20.90;46.66;101153.31;4953312;28;20062;-75
2021/06/11 11:25:52;;;;;;;9.02;2.88;;;;;;;20.90;46.88;101160.94;4948771;29;20046;-75
2021/06/11 11:28:19;;;;;;;8.52;2.60;;;;;;;20.86;46.94;101151.72;4948070;29;20506;-74
2021/06/11 11:30:48;;;;;;;8.88;2.50;;;;;;;20.85;47.05;101162.19;4949182;29;20410;-75
2021/06/11 11:33:16;;;;;;;8.55;2.85;;;;;;;20.95;47.15;101144.47;4948462;28;20043;-74
2021/06/11 11:35:46;;;;;;;10.75;2.80;;;;;;;21.02;46.59;101144.44;4947580;28;20596;-76
2021/06/11 11:38:14;;;;;;;13.38;4.43;;;;;;;21.20;47.25;101152.88;4953653;28;20043;-74
2021/06/11 11:40:42;;;;;;;11.18;3.28;;;;;;;21.35;47.17;101147.97;4948910;28;20122;-74